createdAt,value
2023-02-14T00:01:26.617Z,81.75
2023-02-14T00:03:54.698Z,81.59
2023-02-14T00:06:22.341Z,81.39
2023-02-14T00:08:52.326Z,81.74
2023-02-14T00:11:20.652Z,81.96
2023-02-14T00:14:07.331Z,81.99
2023-02-14T00:19:05.422Z,82.26
2023-02-14T00:21:36.367Z,82.48
2023-02-14T00:24:06.064Z,82.23
2023-02-14T00:26:34.438Z,82.42
2023-02-14T00:29:02.196Z,82.57
2023-02-14T00:31:30.448Z,82.72
2023-02-14T00:33:58.167Z,82.58
2023-02-14T00:36:26.593Z,82.47
2023-02-14T00:38:54.171Z,82.61
2023-02-14T00:41:22.662Z,82.81
2023-02-14T00:43:54.791Z,82.94
2023-02-14T00:46:24.564Z,82.74
2023-02-14T00:48:53.011Z,82.83
2023-02-14T00:51:21.853Z,82.90
2023-02-14T00:53:51.535Z,82.92
2023-02-14T00:56:20.299Z,83.01
2023-02-14T00:58:48.223Z,83.09
2023-02-14T01:01:19.310Z,83.38
2023-02-14T01:03:47.500Z,83.94
2023-02-14T01:06:15.743Z,83.80
2023-02-14T01:08:43.392Z,83.68
2023-02-14T01:11:13.700Z,83.84
2023-02-14T01:13:41.512Z,84.03
2023-02-14T01:16:12.453Z,83.95
2023-02-14T01:18:41.304Z,84.40
2023-02-14T01:21:23.382Z,84.35
2023-02-14T01:23:53.179Z,84.51
2023-02-14T01:26:23.127Z,84.60
2023-02-14T01:28:51.219Z,85.12
2023-02-14T01:31:24.162Z,85.27
2023-02-14T01:33:52.467Z,85.07
2023-02-14T01:36:24.593Z,85.68
2023-02-14T01:38:56.774Z,85.26
2023-02-14T01:41:25.928Z,85.45
2023-02-14T01:44:04.134Z,85.17
2023-02-14T01:46:37.517Z,85.41
2023-02-14T01:49:20.513Z,85.73
2023-02-14T01:52:11.841Z,85.91
2023-02-14T01:54:46.277Z,86.50
2023-02-14T01:57:18.288Z,86.43
2023-02-14T01:59:53.588Z,86.28
2023-02-14T02:02:23.962Z,86.18
2023-02-14T02:04:55.757Z,86.24
2023-02-14T02:07:29.321Z,86.52
2023-02-14T02:10:02.762Z,86.91
2023-02-14T02:12:31.113Z,87.54
2023-02-14T02:15:00.071Z,87.76
2023-02-14T02:17:38.235Z,87.32
2023-02-14T02:20:42.186Z,87.49
2023-02-14T02:23:17.954Z,87.52
2023-02-14T02:26:07.403Z,87.38
2023-02-14T02:28:44.277Z,87.73
2023-02-14T02:31:20.329Z,88.47
2023-02-14T02:34:22.892Z,88.66
2023-02-14T02:37:11.987Z,88.88
2023-02-14T02:40:16.677Z,88.96
2023-02-14T02:43:15.378Z,88.89
2023-02-14T02:46:30.583Z,88.51
2023-02-14T02:49:41.897Z,88.58
2023-02-14T02:53:00.893Z,88.92
2023-02-14T02:56:21.792Z,89.35
2023-02-14T02:59:06.706Z,89.83
2023-02-14T03:01:38.129Z,89.93
2023-02-14T03:04:29.644Z,90.00
2023-02-14T03:07:00.697Z,89.74
2023-02-14T03:09:29.558Z,89.78
2023-02-14T03:12:34.610Z,90.29
2023-02-14T03:15:30.335Z,89.88
2023-02-14T03:18:03.833Z,89.98
2023-02-14T03:20:49.710Z,89.52
2023-02-14T03:23:30.441Z,89.36
2023-02-14T03:26:14.705Z,89.51
2023-02-14T03:28:57.694Z,89.02
2023-02-14T03:31:36.471Z,89.89
2023-02-14T03:34:25.109Z,89.80
2023-02-14T03:37:12.527Z,89.52
2023-02-14T03:40:02.092Z,89.46
2023-02-14T03:42:45.907Z,90.33
2023-02-14T03:45:22.559Z,90.68
2023-02-14T03:47:51.643Z,89.88
2023-02-14T03:50:20.711Z,89.86
2023-02-14T03:52:53.515Z,90.48
2023-02-14T03:55:39.358Z,90.59
2023-02-14T03:58:13.034Z,90.20
2023-02-14T04:00:43.673Z,91.08
2023-02-14T04:03:15.236Z,90.70
2023-02-14T04:05:46.770Z,91.03
2023-02-14T04:08:22.751Z,91.46
2023-02-14T04:10:52.585Z,91.94
2023-02-14T04:13:21.146Z,91.95
2023-02-14T04:15:48.928Z,91.43
2023-02-14T04:18:35.313Z,91.46
2023-02-14T04:21:02.891Z,91.92
2023-02-14T04:23:30.785Z,92.43
2023-02-14T04:25:58.597Z,91.90
2023-02-14T04:28:26.430Z,91.98
2023-02-14T04:30:54.007Z,91.96
2023-02-14T04:33:22.063Z,92.18
2023-02-14T04:35:49.996Z,92.33
2023-02-14T04:38:17.784Z,92.18
2023-02-14T04:40:45.452Z,92.54
2023-02-14T04:43:13.306Z,93.50
2023-02-14T04:45:40.956Z,93.68
2023-02-14T04:48:08.896Z,93.98
2023-02-14T04:50:36.569Z,93.87
2023-02-14T04:53:04.398Z,94.09
2023-02-14T04:55:31.987Z,93.91
2023-02-14T04:57:59.769Z,94.50
2023-02-14T05:00:27.458Z,94.05
2023-02-14T05:02:55.376Z,93.98
2023-02-14T05:05:22.987Z,94.10
2023-02-14T05:07:50.816Z,94.41
2023-02-14T05:10:18.554Z,94.30
2023-02-14T05:12:46.387Z,94.60
2023-02-14T05:15:13.943Z,94.83
2023-02-14T05:17:41.799Z,94.58
2023-02-14T05:20:10.071Z,94.93
2023-02-14T05:22:38.039Z,94.97
2023-02-14T05:25:05.876Z,94.83
2023-02-14T05:27:33.701Z,94.30
2023-02-14T05:30:01.247Z,95.01
2023-02-14T05:32:29.251Z,94.80
2023-02-14T05:34:56.855Z,94.95
2023-02-14T05:37:24.668Z,95.13
2023-02-14T05:39:52.263Z,95.11
2023-02-14T05:42:20.122Z,94.99
2023-02-14T05:44:48.761Z,95.36
2023-02-14T05:47:16.559Z,95.50
2023-02-14T05:49:44.042Z,95.55
2023-02-14T05:52:11.991Z,95.44
2023-02-14T05:54:39.500Z,95.54
2023-02-14T05:57:07.481Z,95.22
2023-02-14T05:59:35.029Z,95.11
2023-02-14T06:02:02.971Z,95.14
2023-02-14T06:04:30.692Z,95.51
2023-02-14T06:06:58.666Z,95.87
2023-02-14T06:09:26.258Z,95.76
2023-02-14T06:11:55.373Z,96.04
2023-02-14T06:14:23.037Z,94.91
2023-02-14T06:16:50.980Z,95.28
2023-02-14T06:19:18.616Z,94.96
2023-02-14T06:21:46.923Z,95.36
2023-02-14T06:24:14.764Z,95.03
2023-02-14T06:26:42.797Z,95.41
2023-02-14T06:29:10.474Z,95.77
2023-02-14T06:31:38.491Z,95.18
2023-02-14T06:34:06.196Z,95.72
2023-02-14T06:36:34.293Z,95.25
2023-02-14T06:39:01.880Z,95.42
2023-02-14T06:41:29.979Z,94.96
2023-02-14T06:43:57.561Z,95.54
2023-02-14T06:46:25.995Z,95.25
2023-02-14T06:48:53.527Z,95.37
2023-02-14T06:51:21.310Z,95.35
2023-02-14T06:53:48.835Z,95.52
2023-02-14T06:56:16.624Z,95.80
2023-02-14T06:58:44.234Z,95.66
2023-02-14T07:01:12.243Z,95.29
2023-02-14T07:03:39.946Z,95.50
2023-02-14T07:06:07.896Z,95.65
2023-02-14T07:08:35.419Z,94.81
2023-02-14T07:11:03.485Z,94.90
2023-02-14T07:13:31.164Z,95.25
2023-02-14T07:15:59.095Z,94.61
2023-02-14T07:18:26.830Z,94.67
2023-02-14T07:20:54.667Z,93.98
2023-02-14T07:23:22.377Z,94.05
2023-02-14T07:25:50.365Z,93.89
2023-02-14T07:28:17.997Z,93.63
2023-02-14T07:30:46.028Z,93.32
2023-02-14T07:33:13.890Z,93.11
2023-02-14T07:35:41.718Z,93.17
2023-02-14T07:38:09.545Z,92.75
2023-02-14T07:40:37.373Z,92.56
2023-02-14T07:43:04.940Z,92.57
2023-02-14T07:45:32.840Z,92.67
2023-02-14T07:48:02.282Z,92.27
2023-02-14T07:50:30.512Z,92.46
2023-02-14T07:52:58.075Z,92.14
2023-02-14T07:55:25.911Z,91.40
2023-02-14T07:57:53.788Z,91.33
2023-02-14T08:00:22.380Z,91.73
2023-02-14T08:02:50.140Z,91.78
2023-02-14T08:05:18.691Z,91.96
2023-02-14T08:07:50.472Z,92.07
2023-02-14T08:10:18.539Z,91.28
2023-02-14T08:13:01.229Z,91.38
2023-02-14T08:15:50.318Z,90.65
2023-02-14T08:18:19.049Z,89.87
2023-02-14T08:20:50.721Z,89.95
2023-02-14T08:23:20.001Z,90.12
2023-02-14T08:25:51.804Z,90.15
2023-02-14T08:28:22.160Z,90.32
2023-02-14T08:30:50.980Z,90.43
2023-02-14T08:33:19.427Z,89.70
2023-02-14T08:35:47.566Z,89.74
2023-02-14T08:38:15.186Z,89.13
2023-02-14T08:40:43.402Z,89.39
2023-02-14T08:43:11.672Z,88.81
2023-02-14T08:45:40.364Z,87.99
2023-02-14T08:48:11.144Z,87.86
2023-02-14T08:50:39.984Z,88.24
2023-02-14T08:53:10.169Z,88.86
2023-02-14T08:55:40.150Z,88.71
2023-02-14T08:58:08.237Z,88.14
2023-02-14T09:00:36.229Z,88.09
2023-02-14T09:03:04.036Z,87.85
2023-02-14T09:05:33.331Z,87.40
2023-02-14T09:08:03.278Z,87.08
2023-02-14T09:10:31.515Z,86.55
2023-02-14T09:12:59.159Z,85.68
2023-02-14T09:15:27.047Z,85.61
2023-02-14T09:17:54.830Z,85.32
2023-02-14T09:20:22.839Z,84.97
2023-02-14T09:22:50.539Z,85.55
2023-02-14T09:25:18.438Z,85.39
2023-02-14T09:27:46.058Z,84.84
2023-02-14T09:30:14.649Z,84.45
2023-02-14T09:32:42.536Z,83.69
2023-02-14T09:35:10.332Z,83.16
2023-02-14T09:37:37.933Z,82.88
2023-02-14T09:40:06.578Z,82.37
2023-02-14T09:42:53.206Z,82.18
2023-02-14T09:45:25.379Z,82.10
2023-02-14T09:48:32.230Z,81.96
2023-02-14T09:51:11.906Z,81.15
2023-02-14T09:54:04.813Z,80.74
2023-02-14T09:56:54.373Z,79.97
2023-02-14T09:59:34.436Z,79.56
2023-02-14T10:02:34.552Z,79.23
2023-02-14T10:05:32.355Z,79.49
2023-02-14T10:08:06.154Z,79.47
2023-02-14T10:10:45.519Z,78.88
2023-02-14T10:13:46.349Z,79.02
2023-02-14T10:16:13.855Z,79.62
2023-02-14T10:18:49.960Z,78.86
2023-02-14T10:21:33.815Z,78.81
2023-02-14T10:24:16.278Z,79.12
2023-02-14T10:26:45.410Z,79.13
2023-02-14T10:29:18.358Z,79.52
2023-02-14T10:31:58.104Z,79.51
2023-02-14T10:35:00.726Z,79.48
2023-02-14T10:38:10.314Z,79.21
2023-02-14T10:40:47.023Z,79.78
2023-02-14T10:43:20.167Z,79.87
2023-02-14T10:46:29.859Z,79.52
2023-02-14T10:49:24.734Z,79.41
2023-02-14T10:52:15.471Z,79.26
2023-02-14T10:54:50.944Z,79.21
2023-02-14T10:57:31.275Z,79.12
2023-02-14T11:00:07.195Z,78.98
2023-02-14T11:02:41.319Z,78.81
2023-02-14T11:05:14.499Z,78.93
2023-02-14T11:07:45.519Z,79.07
2023-02-14T11:10:15.950Z,78.76
2023-02-14T11:12:43.869Z,78.70
2023-02-14T11:15:20.723Z,78.62
2023-02-14T11:17:48.891Z,79.02
2023-02-14T11:20:20.012Z,78.93
2023-02-14T11:22:47.945Z,78.48
2023-02-14T11:25:23.017Z,78.81
2023-02-14T11:28:03.561Z,79.62
2023-02-14T11:30:42.931Z,79.44
2023-02-14T11:33:43.286Z,79.04
2023-02-14T11:36:14.752Z,78.20
2023-02-14T11:38:54.471Z,78.33
2023-02-14T11:41:24.452Z,78.12
2023-02-14T11:44:09.483Z,78.11
2023-02-14T11:46:52.305Z,78.33
2023-02-14T11:49:27.572Z,78.97
2023-02-14T11:51:57.107Z,79.27
2023-02-14T11:54:30.634Z,79.40
2023-02-14T11:57:17.464Z,79.28
2023-02-14T11:59:48.516Z,78.36
2023-02-14T12:02:32.637Z,78.48
2023-02-14T12:05:07.019Z,78.67
2023-02-14T12:07:38.008Z,79.04
2023-02-14T12:10:33.477Z,79.00
2023-02-14T12:13:26.038Z,78.97
2023-02-14T12:15:56.524Z,78.55
2023-02-14T12:18:39.311Z,79.15
2023-02-14T12:21:12.853Z,79.54
2023-02-14T12:23:56.817Z,79.16
2023-02-14T12:26:43.633Z,78.25
2023-02-14T12:29:34.300Z,77.61
2023-02-14T12:32:18.353Z,77.45
2023-02-14T12:34:46.057Z,77.16
2023-02-14T12:37:27.470Z,76.88
2023-02-14T12:40:16.193Z,77.26
2023-02-14T12:43:20.588Z,77.80
2023-02-14T12:45:49.030Z,77.86
2023-02-14T12:48:33.492Z,77.42
2023-02-14T12:51:19.244Z,76.58
2023-02-14T12:53:49.729Z,76.49
2023-02-14T12:56:33.612Z,76.12
2023-02-14T12:59:23.170Z,76.14
2023-02-14T13:01:55.354Z,75.94
2023-02-14T13:04:46.741Z,76.20
2023-02-14T13:07:26.799Z,75.75
2023-02-14T13:10:14.635Z,76.01
2023-02-14T13:13:04.626Z,75.31
2023-02-14T13:15:46.602Z,75.64
2023-02-14T13:18:36.159Z,75.99
2023-02-14T13:21:08.433Z,76.54
2023-02-14T13:23:45.332Z,76.92
2023-02-14T13:26:31.338Z,77.23
2023-02-14T13:29:11.075Z,77.21
2023-02-14T13:31:40.426Z,77.17
2023-02-14T13:34:29.385Z,77.44
2023-02-14T13:37:00.693Z,78.23
2023-02-14T13:39:59.424Z,78.86
2023-02-14T13:42:49.913Z,79.55
2023-02-14T13:45:34.873Z,79.62
2023-02-14T13:48:09.035Z,79.62
2023-02-14T13:50:40.875Z,79.49
2023-02-14T13:53:29.286Z,79.79
2023-02-14T13:55:57.280Z,79.89
2023-02-14T13:58:25.789Z,80.32
2023-02-14T14:00:54.743Z,80.19
2023-02-14T14:03:28.926Z,80.38
2023-02-14T14:06:11.111Z,80.27
2023-02-14T14:08:42.285Z,80.23
2023-02-14T14:11:22.202Z,80.35
2023-02-14T14:13:58.935Z,80.29
2023-02-14T14:16:26.794Z,80.70
2023-02-14T14:18:54.812Z,80.72
2023-02-14T14:21:46.259Z,80.96
2023-02-14T14:24:27.761Z,80.60
2023-02-14T14:27:17.548Z,80.82
2023-02-14T14:29:47.216Z,80.92
2023-02-14T14:32:36.324Z,80.95
2023-02-14T14:35:12.509Z,81.05
2023-02-14T14:37:55.530Z,81.34
2023-02-14T14:40:37.447Z,81.29
2023-02-14T14:43:31.413Z,81.23
2023-02-14T14:46:02.331Z,81.20
2023-02-14T14:48:54.967Z,81.49
2023-02-14T14:51:32.225Z,81.45
2023-02-14T14:54:02.391Z,81.33
2023-02-14T14:56:34.280Z,81.58
2023-02-14T14:59:26.802Z,81.24
2023-02-14T15:01:55.392Z,81.78
2023-02-14T15:04:29.512Z,82.06
2023-02-14T15:07:17.438Z,82.32
2023-02-14T15:09:45.040Z,82.30
2023-02-14T15:12:35.036Z,82.16
2023-02-14T15:15:04.473Z,82.41
2023-02-14T15:17:33.473Z,82.34
2023-02-14T15:20:05.579Z,82.29
2023-02-14T15:22:48.200Z,82.20
2023-02-14T15:25:21.857Z,82.29
2023-02-14T15:27:50.572Z,82.39
2023-02-14T15:30:34.776Z,82.63
2023-02-14T15:33:04.914Z,83.08
2023-02-14T15:35:42.173Z,83.18
2023-02-14T15:38:12.117Z,83.67
2023-02-14T15:40:40.420Z,84.19
2023-02-14T15:43:32.022Z,84.14
2023-02-14T15:46:24.018Z,84.12
2023-02-14T15:48:53.038Z,84.35
2023-02-14T15:51:24.743Z,84.32
2023-02-14T15:53:59.424Z,84.09
2023-02-14T15:56:30.399Z,84.51
2023-02-14T15:59:07.139Z,84.63
2023-02-14T16:01:36.473Z,84.85
2023-02-14T16:04:06.990Z,85.36
2023-02-14T16:06:44.450Z,85.79
2023-02-14T16:09:31.074Z,86.26
2023-02-14T16:11:58.646Z,86.72
2023-02-14T16:14:32.521Z,87.01
2023-02-14T16:17:06.824Z,87.75
2023-02-14T16:19:41.583Z,88.00
2023-02-14T16:22:24.432Z,88.51
2023-02-14T16:24:52.313Z,88.94
2023-02-14T16:27:19.884Z,89.91
2023-02-14T16:29:47.685Z,90.33
2023-02-14T16:32:21.160Z,91.00
2023-02-14T16:34:49.959Z,91.76
2023-02-14T16:37:31.632Z,92.09
2023-02-14T16:40:01.716Z,92.67
2023-02-14T16:42:29.418Z,93.28
2023-02-14T16:44:57.780Z,93.34
2023-02-14T16:47:27.736Z,93.78
2023-02-14T16:49:55.665Z,94.62
2023-02-14T16:52:27.019Z,94.79
2023-02-14T16:54:55.019Z,95.32
2023-02-14T16:57:44.514Z,96.41
2023-02-14T17:00:13.465Z,97.04
2023-02-14T17:02:44.158Z,96.90
2023-02-14T17:05:12.547Z,97.46
2023-02-14T17:07:43.567Z,97.94
2023-02-14T17:10:18.045Z,98.74
2023-02-14T17:12:47.484Z,98.92
2023-02-14T17:15:18.794Z,99.24
2023-02-14T17:17:48.841Z,99.71
2023-02-14T17:20:19.924Z,99.82
2023-02-14T17:22:48.091Z,100.00
2023-02-14T17:25:16.013Z,100.00
2023-02-14T17:27:44.615Z,100.00
2023-02-14T17:30:14.591Z,100.00
2023-02-14T17:32:42.957Z,100.00
2023-02-14T17:35:11.959Z,100.00
2023-02-14T17:37:39.674Z,100.00
2023-02-14T17:40:08.660Z,100.00
2023-02-14T17:42:38.624Z,100.00
2023-02-14T17:45:07.363Z,100.00
2023-02-14T17:47:35.741Z,100.00
2023-02-14T17:50:03.940Z,100.00
2023-02-14T17:52:32.174Z,100.00
2023-02-14T17:55:00.258Z,100.00
2023-02-14T17:57:27.988Z,100.00
2023-02-14T17:59:58.114Z,100.00
2023-02-14T18:02:26.555Z,100.00
2023-02-14T18:04:55.219Z,100.00
2023-02-14T18:07:23.784Z,100.00
2023-02-14T18:09:51.904Z,100.00
2023-02-14T18:12:19.769Z,100.00
2023-02-14T18:14:47.692Z,100.00
2023-02-14T18:17:15.512Z,100.00
2023-02-14T18:19:43.443Z,100.00
2023-02-14T18:22:11.558Z,100.00
2023-02-14T18:24:39.491Z,100.00
2023-02-14T18:27:07.262Z,100.00
2023-02-14T18:29:36.382Z,100.00
2023-02-14T18:32:04.837Z,100.00
2023-02-14T18:34:35.775Z,100.00
2023-02-14T18:37:04.472Z,100.00
2023-02-14T18:39:32.958Z,100.00
2023-02-14T18:42:01.439Z,100.00
2023-02-14T18:44:29.562Z,100.00
2023-02-14T18:46:57.207Z,100.00
2023-02-14T18:49:24.983Z,100.00
2023-02-14T18:51:52.547Z,100.00
2023-02-14T18:54:20.408Z,100.00
2023-02-14T18:56:48.042Z,100.00
2023-02-14T18:59:16.868Z,100.00
2023-02-14T19:01:46.085Z,100.00
2023-02-14T19:04:14.381Z,100.00
2023-02-14T19:06:42.822Z,100.00
2023-02-14T19:09:13.656Z,100.00
2023-02-14T19:11:41.701Z,100.00
2023-02-14T19:14:10.612Z,100.00
2023-02-14T19:16:53.503Z,100.00
2023-02-14T19:19:22.842Z,100.00
2023-02-14T19:21:50.786Z,100.00
2023-02-14T19:24:19.850Z,100.00
2023-02-14T19:26:48.344Z,100.00
2023-02-14T19:29:18.268Z,100.00
2023-02-14T19:31:49.632Z,100.00
2023-02-14T19:34:24.039Z,100.00
2023-02-14T19:36:53.411Z,100.00
2023-02-14T19:39:23.068Z,100.00
2023-02-14T19:41:51.293Z,100.00
2023-02-14T19:44:19.433Z,100.00
2023-02-14T19:46:47.887Z,100.00
2023-02-14T19:49:20.594Z,100.00
2023-02-14T19:51:51.195Z,100.00
2023-02-14T19:54:19.642Z,100.00
2023-02-14T19:56:47.920Z,100.00
2023-02-14T19:59:20.341Z,100.00
2023-02-14T20:01:51.431Z,100.00
2023-02-14T20:04:23.356Z,100.00
2023-02-14T20:06:51.805Z,100.00
2023-02-14T20:09:23.517Z,100.00
2023-02-14T20:11:54.492Z,100.00
2023-02-14T20:14:40.934Z,100.00
2023-02-14T20:17:17.952Z,100.00
2023-02-14T20:19:45.828Z,100.00
2023-02-14T20:22:13.630Z,100.00
2023-02-14T20:24:41.607Z,100.00
2023-02-14T20:27:09.085Z,100.00
2023-02-14T20:29:39.052Z,100.00
2023-02-14T20:32:07.102Z,100.00
2023-02-14T20:34:35.392Z,100.00
2023-02-14T20:37:02.993Z,100.00
2023-02-14T20:39:35.061Z,100.00
2023-02-14T20:42:02.819Z,100.00
2023-02-14T20:44:31.124Z,100.00
2023-02-14T20:46:58.933Z,100.00
2023-02-14T20:49:28.552Z,100.00
2023-02-14T20:51:56.837Z,100.00
2023-02-14T20:54:26.764Z,100.00
2023-02-14T20:56:54.546Z,100.00
2023-02-14T20:59:28.911Z,100.00
2023-02-14T21:01:58.364Z,100.00
2023-02-14T21:04:26.872Z,100.00
2023-02-14T21:06:54.681Z,100.00
2023-02-14T21:09:22.572Z,100.00
2023-02-14T21:11:50.417Z,100.00
2023-02-14T21:14:18.276Z,100.00
2023-02-14T21:16:45.941Z,100.00
2023-02-14T21:19:13.806Z,100.00
2023-02-14T21:21:41.743Z,100.00
2023-02-14T21:24:15.314Z,100.00
2023-02-14T21:26:43.515Z,100.00
2023-02-14T21:29:11.797Z,100.00
2023-02-14T21:31:39.741Z,100.00
2023-02-14T21:34:07.675Z,100.00
2023-02-14T21:36:35.995Z,100.00
2023-02-14T21:39:05.169Z,100.00
2023-02-14T21:41:32.894Z,100.00
2023-02-14T21:44:02.078Z,100.00
2023-02-14T21:46:32.370Z,100.00
2023-02-14T21:49:23.968Z,100.00
2023-02-14T21:51:51.925Z,100.00
2023-02-14T21:54:19.796Z,100.00
2023-02-14T21:56:49.245Z,100.00
2023-02-14T21:59:17.408Z,100.00
2023-02-14T22:01:45.023Z,100.00
2023-02-14T22:04:13.507Z,100.00
2023-02-14T22:06:42.534Z,100.00
2023-02-14T22:09:12.798Z,100.00
2023-02-14T22:11:40.500Z,100.00
2023-02-14T22:14:08.713Z,100.00
2023-02-14T22:16:36.904Z,100.00
2023-02-14T22:19:06.005Z,100.00
2023-02-14T22:21:34.065Z,100.00
2023-02-14T22:24:02.078Z,100.00
2023-02-14T22:26:38.730Z,100.00
2023-02-14T22:29:08.111Z,100.00
2023-02-14T22:31:41.996Z,100.00
2023-02-14T22:34:13.720Z,100.00
2023-02-14T22:36:41.768Z,100.00
2023-02-14T22:39:10.713Z,100.00
2023-02-14T22:41:38.444Z,100.00
2023-02-14T22:44:07.201Z,100.00
2023-02-14T22:46:36.832Z,100.00
2023-02-14T22:49:05.908Z,100.00
2023-02-14T22:51:41.866Z,100.00
2023-02-14T22:54:15.315Z,100.00
2023-02-14T22:56:51.638Z,100.00
2023-02-14T22:59:23.113Z,100.00
2023-02-14T23:01:52.789Z,100.00
2023-02-14T23:04:22.801Z,100.00
2023-02-14T23:06:52.027Z,100.00
2023-02-14T23:09:20.440Z,100.00
2023-02-14T23:11:48.817Z,100.00
2023-02-14T23:14:36.753Z,100.00
2023-02-14T23:17:25.146Z,100.00
2023-02-14T23:20:11.596Z,100.00
2023-02-14T23:22:41.152Z,100.00
2023-02-14T23:25:11.983Z,100.00
2023-02-14T23:27:43.468Z,100.00
2023-02-14T23:30:14.795Z,100.00
2023-02-14T23:32:42.473Z,100.00
2023-02-14T23:35:10.386Z,100.00
2023-02-14T23:37:38.392Z,100.00
2023-02-14T23:40:07.195Z,100.00
2023-02-14T23:42:34.760Z,100.00
2023-02-14T23:45:21.357Z,100.00
2023-02-14T23:47:49.039Z,100.00
2023-02-14T23:50:17.260Z,100.00
2023-02-14T23:52:44.863Z,100.00
2023-02-14T23:55:13.072Z,100.00
2023-02-14T23:57:40.659Z,100.00
